createdAt,value
2022-09-18T00:00:50.867Z,4.57
2022-09-18T00:05:53.033Z,4.47
2022-09-18T00:10:55.107Z,4.10
2022-09-18T00:15:57.388Z,4.83
2022-09-18T00:21:07.656Z,4.50
2022-09-18T00:26:11.472Z,4.70
2022-09-18T00:31:16.688Z,4.53
2022-09-18T00:36:19.410Z,4.17
2022-09-18T00:41:25.138Z,4.83
2022-09-18T00:46:33.469Z,5.10
2022-09-18T00:51:37.564Z,4.70
2022-09-18T00:56:39.882Z,4.20
2022-09-18T01:01:41.965Z,5.70
2022-09-18T01:06:52.305Z,5.00
2022-09-18T01:12:23.387Z,5.20
2022-09-18T01:17:48.842Z,4.87
2022-09-18T01:23:28.188Z,4.60
2022-09-18T01:28:34.243Z,5.10
2022-09-18T01:33:45.756Z,4.40
2022-09-18T01:38:52.803Z,4.43
2022-09-18T01:44:00.655Z,4.60
2022-09-18T01:49:06.024Z,4.30
2022-09-18T01:54:16.297Z,4.97
2022-09-18T01:59:28.431Z,4.87
2022-09-18T02:04:40.764Z,4.10
2022-09-18T02:09:46.738Z,4.83
2022-09-18T02:14:53.942Z,4.20
2022-09-18T02:20:35.469Z,4.30
2022-09-18T02:25:58.581Z,4.40
2022-09-18T02:31:01.441Z,5.33
2022-09-18T02:36:44.190Z,3.97
2022-09-18T02:47:35.157Z,4.27
2022-09-18T02:52:48.235Z,4.13
2022-09-18T02:57:57.574Z,3.67
2022-09-18T03:03:00.443Z,4.77
2022-09-18T03:08:19.491Z,4.77
2022-09-18T03:13:21.685Z,4.07
2022-09-18T03:18:24.428Z,4.50
2022-09-18T03:23:26.945Z,5.00
2022-09-18T03:28:41.771Z,5.00
2022-09-18T03:33:44.100Z,5.03
2022-09-18T03:38:47.523Z,4.87
2022-09-18T03:43:50.075Z,5.30
2022-09-18T03:48:53.656Z,5.23
2022-09-18T03:53:57.452Z,4.83
2022-09-18T03:59:08.776Z,4.37
2022-09-18T04:04:26.009Z,7.03
2022-09-18T04:09:46.958Z,6.00
2022-09-18T04:14:50.622Z,5.33
2022-09-18T04:19:53.853Z,5.90
2022-09-18T04:24:56.230Z,6.27
2022-09-18T04:29:58.576Z,6.13
2022-09-18T04:35:00.929Z,6.40
2022-09-18T04:40:07.862Z,7.47
2022-09-18T04:45:11.068Z,6.30
2022-09-18T04:50:15.356Z,6.57
2022-09-18T04:55:37.442Z,6.93
2022-09-18T05:00:43.307Z,6.57
2022-09-18T05:05:45.644Z,6.53
2022-09-18T05:10:48.508Z,6.27
2022-09-18T05:15:56.268Z,7.30
2022-09-18T05:21:03.956Z,7.40
2022-09-18T05:26:07.353Z,7.00
2022-09-18T05:31:09.583Z,6.87
2022-09-18T05:36:17.512Z,7.77
2022-09-18T05:41:22.108Z,7.77
2022-09-18T05:46:24.517Z,6.70
2022-09-18T05:51:34.047Z,6.83
2022-09-18T05:56:36.765Z,7.30
2022-09-18T06:01:57.517Z,7.73
2022-09-18T06:07:28.813Z,7.33
2022-09-18T06:12:32.278Z,6.77
2022-09-18T06:17:40.287Z,7.27
2022-09-18T06:22:45.018Z,7.40
2022-09-18T06:27:58.639Z,7.23
2022-09-18T06:33:09.077Z,8.33
2022-09-18T06:38:11.341Z,8.50
2022-09-18T06:43:18.861Z,7.53
2022-09-18T06:48:39.768Z,8.70
2022-09-18T06:53:42.179Z,7.27
2022-09-18T06:58:45.419Z,8.03
2022-09-18T07:03:51.297Z,7.67
2022-09-18T07:08:58.245Z,6.70
2022-09-18T07:14:20.721Z,7.50
2022-09-18T07:19:25.042Z,6.57
2022-09-18T07:24:28.554Z,6.77
2022-09-18T07:29:33.097Z,6.63
2022-09-18T07:34:35.458Z,6.93
2022-09-18T07:39:37.756Z,5.87
2022-09-18T07:45:01.638Z,5.83
2022-09-18T07:50:05.900Z,6.20
2022-09-18T07:55:08.470Z,5.90
2022-09-18T08:00:13.044Z,6.60
2022-09-18T08:05:18.205Z,5.70
2022-09-18T08:10:30.494Z,5.63
2022-09-18T08:15:58.843Z,5.17
2022-09-18T08:21:21.017Z,5.60
2022-09-18T08:26:26.436Z,5.10
2022-09-18T08:31:30.072Z,5.60
2022-09-18T08:36:33.176Z,5.17
2022-09-18T08:42:33.907Z,5.33
2022-09-18T08:47:53.032Z,5.60
2022-09-18T08:53:03.253Z,7.80
2022-09-18T08:58:32.051Z,5.40
2022-09-18T09:03:57.422Z,4.80
2022-09-18T09:09:14.936Z,5.47
2022-09-18T09:14:52.744Z,5.43
2022-09-18T09:19:57.158Z,5.60
2022-09-18T09:25:08.511Z,6.55
2022-09-18T09:30:23.247Z,6.20
2022-09-18T09:35:56.204Z,5.30
2022-09-18T09:41:16.521Z,4.20
2022-09-18T09:46:52.302Z,4.60
2022-09-18T09:52:17.783Z,5.00
2022-09-18T09:57:43.847Z,5.73
2022-09-18T10:02:53.366Z,5.40
2022-09-18T10:08:19.661Z,4.93
2022-09-18T10:13:47.219Z,4.67
2022-09-18T10:18:53.418Z,4.50
2022-09-18T10:24:25.880Z,5.93
2022-09-18T10:29:35.789Z,5.90
2022-09-18T10:34:48.843Z,5.63
2022-09-18T10:40:02.506Z,4.83
2022-09-18T10:45:25.959Z,5.17
2022-09-18T10:50:34.576Z,5.93
2022-09-18T10:55:51.605Z,5.33
2022-09-18T11:01:04.122Z,5.63
2022-09-18T11:06:15.277Z,5.43
2022-09-18T11:11:39.862Z,5.45
2022-09-18T11:16:50.917Z,5.82
2022-09-18T11:21:56.323Z,7.60
2022-09-18T11:27:23.962Z,6.17
2022-09-18T11:32:50.819Z,6.70
2022-09-18T11:37:57.603Z,5.43
2022-09-18T11:43:03.170Z,5.57
2022-09-18T11:48:37.057Z,5.13
2022-09-18T11:53:42.180Z,5.20
2022-09-18T11:58:58.759Z,4.70
2022-09-18T12:04:19.531Z,4.93
2022-09-18T12:09:39.365Z,5.70
2022-09-18T12:15:05.661Z,6.10
2022-09-18T12:20:28.697Z,6.53
2022-09-18T12:25:43.525Z,7.77
2022-09-18T12:31:26.512Z,7.83
2022-09-18T12:36:50.344Z,7.83
2022-09-18T12:42:02.390Z,8.00
2022-09-18T12:47:18.659Z,7.50
2022-09-18T12:53:08.515Z,9.17
2022-09-18T13:03:37.527Z,6.97
2022-09-18T13:08:55.223Z,6.50
2022-09-18T13:14:05.798Z,6.40
2022-09-18T13:19:24.480Z,7.33
2022-09-18T13:24:30.236Z,8.30
2022-09-18T13:29:54.268Z,9.50
2022-09-18T13:34:58.477Z,7.23
2022-09-18T13:40:11.285Z,8.40
2022-09-18T13:45:27.402Z,6.70
2022-09-18T13:50:30.240Z,7.93
2022-09-18T13:55:49.346Z,6.87
2022-09-18T14:00:55.008Z,7.75
2022-09-18T14:05:57.263Z,7.07
2022-09-18T14:11:15.135Z,8.07
2022-09-18T14:16:24.510Z,7.67
2022-09-18T14:21:34.821Z,9.05
2022-09-18T14:26:39.736Z,8.93
2022-09-18T14:31:45.247Z,8.10
2022-09-18T14:36:48.535Z,8.13
2022-09-18T14:41:52.369Z,7.83
2022-09-18T14:47:00.904Z,7.03
2022-09-18T14:52:04.899Z,7.57
2022-09-18T14:57:11.056Z,7.50
2022-09-18T15:02:34.385Z,7.07
2022-09-18T15:07:40.143Z,5.07
2022-09-18T15:12:42.782Z,5.03
2022-09-18T15:17:51.102Z,5.07
2022-09-18T15:22:57.016Z,4.70
2022-09-18T15:28:04.111Z,4.60
2022-09-18T15:33:12.499Z,3.83
2022-09-18T15:38:18.150Z,3.90
2022-09-18T15:43:41.223Z,3.67
2022-09-18T15:48:45.556Z,4.07
2022-09-18T15:54:13.275Z,3.77
2022-09-18T15:59:30.933Z,4.00
2022-09-18T16:04:36.200Z,3.90
2022-09-18T16:09:42.342Z,3.03
2022-09-18T16:14:50.362Z,3.50
2022-09-18T16:19:54.395Z,3.00
2022-09-18T16:24:57.760Z,3.20
2022-09-18T16:29:59.972Z,2.97
2022-09-18T16:35:11.536Z,3.43
2022-09-18T16:40:17.742Z,3.33
2022-09-18T16:45:20.115Z,3.37
2022-09-18T16:50:24.938Z,3.53
2022-09-18T16:55:27.360Z,3.03
2022-09-18T17:00:32.731Z,3.13
2022-09-18T17:05:35.164Z,3.70
2022-09-18T17:10:37.508Z,3.70
2022-09-18T17:15:39.917Z,3.40
2022-09-18T17:20:42.532Z,3.87
2022-09-18T17:25:48.560Z,2.97
2022-09-18T17:30:54.477Z,3.20
2022-09-18T17:35:56.790Z,3.40
2022-09-18T17:41:00.815Z,3.67
2022-09-18T17:46:05.573Z,3.63
2022-09-18T17:51:14.096Z,3.33
2022-09-18T17:56:18.463Z,3.08
2022-09-18T18:01:23.603Z,3.40
2022-09-18T18:06:26.236Z,3.63
2022-09-18T18:11:29.747Z,3.50
2022-09-18T18:16:35.362Z,4.30
2022-09-18T18:21:38.525Z,4.00
2022-09-18T18:26:44.241Z,4.00
2022-09-18T18:31:48.511Z,4.10
2022-09-18T18:36:54.960Z,4.60
2022-09-18T18:41:59.654Z,4.70
2022-09-18T18:47:01.996Z,4.50
2022-09-18T18:52:05.377Z,5.07
2022-09-18T18:57:07.769Z,4.90
2022-09-18T19:02:13.252Z,5.30
2022-09-18T19:07:15.515Z,5.97
2022-09-18T19:12:19.323Z,7.00
2022-09-18T19:17:21.658Z,6.43
2022-09-18T19:22:23.821Z,6.60
2022-09-18T19:27:26.012Z,7.30
2022-09-18T19:32:28.161Z,8.20
2022-09-18T19:37:30.439Z,7.63
2022-09-18T19:42:36.705Z,7.90
2022-09-18T19:47:42.941Z,8.27
2022-09-18T19:52:47.573Z,7.80
2022-09-18T19:57:54.505Z,7.63
2022-09-18T20:02:59.807Z,6.73
2022-09-18T20:08:02.176Z,8.07
2022-09-18T20:13:04.637Z,7.60
2022-09-18T20:18:07.472Z,8.17
2022-09-18T20:23:09.606Z,8.50
2022-09-18T20:28:11.790Z,8.30
2022-09-18T20:33:14.002Z,7.90
2022-09-18T20:38:17.190Z,8.63
2022-09-18T20:43:19.400Z,7.80
2022-09-18T20:48:26.523Z,8.10
2022-09-18T20:53:30.854Z,7.40
2022-09-18T20:58:35.310Z,7.57
2022-09-18T21:03:39.029Z,7.23
2022-09-18T21:08:46.151Z,7.00
2022-09-18T21:13:48.665Z,8.53
2022-09-18T21:18:53.571Z,7.20
2022-09-18T21:24:01.566Z,7.03
2022-09-18T21:29:08.039Z,7.27
2022-09-18T21:34:24.559Z,6.60
2022-09-18T21:39:28.455Z,5.67
2022-09-18T21:44:34.152Z,7.20
2022-09-18T21:49:36.377Z,5.60
2022-09-18T21:54:38.720Z,5.77
2022-09-18T21:59:40.790Z,6.07
2022-09-18T22:04:45.831Z,7.17
2022-09-18T22:09:48.156Z,7.10
2022-09-18T22:14:50.423Z,6.53
2022-09-18T22:19:52.698Z,7.17
2022-09-18T22:24:55.661Z,7.17
2022-09-18T22:30:00.071Z,7.17
2022-09-18T22:35:03.130Z,6.77
2022-09-18T22:40:06.611Z,6.80
2022-09-18T22:45:10.301Z,7.50
2022-09-18T22:50:12.428Z,8.37
2022-09-18T22:55:14.712Z,6.70
2022-09-18T23:00:16.859Z,8.20
2022-09-18T23:05:18.974Z,8.80
2022-09-18T23:10:22.263Z,8.63
2022-09-18T23:15:24.412Z,8.60
2022-09-18T23:20:26.519Z,9.13
2022-09-18T23:25:28.710Z,7.73
2022-09-18T23:30:31.209Z,7.37
2022-09-18T23:35:33.356Z,8.73
2022-09-18T23:40:35.913Z,8.33
2022-09-18T23:45:38.037Z,7.53
2022-09-18T23:50:42.417Z,6.83
2022-09-18T23:55:45.503Z,7.23
